createdAt,value
2023-04-26T00:03:57.323Z,1.00
2023-04-26T00:09:04.584Z,1.03
2023-04-26T00:14:12.394Z,1.10
2023-04-26T00:19:21.101Z,1.04
2023-04-26T00:24:29.162Z,1.04
2023-04-26T00:29:36.905Z,1.07
2023-04-26T00:34:44.892Z,1.07
2023-04-26T00:39:52.684Z,0.95
2023-04-26T00:45:01.108Z,1.13
2023-04-26T00:50:08.652Z,1.04
2023-04-26T00:55:16.734Z,1.06
2023-04-26T01:00:24.400Z,1.02
2023-04-26T01:05:32.088Z,1.00
2023-04-26T01:10:39.488Z,0.88
2023-04-26T01:15:47.287Z,0.94
2023-04-26T01:20:54.967Z,1.07
2023-04-26T01:26:02.717Z,1.06
2023-04-26T01:31:10.463Z,1.02
2023-04-26T01:36:18.510Z,1.02
2023-04-26T01:41:25.918Z,1.11
2023-04-26T01:46:33.604Z,0.86
2023-04-26T01:51:41.042Z,1.04
2023-04-26T01:56:48.872Z,0.96
2023-04-26T02:01:56.649Z,1.15
2023-04-26T02:07:04.823Z,1.00
2023-04-26T02:12:12.231Z,1.13
2023-04-26T02:17:20.408Z,1.01
2023-04-26T02:22:28.110Z,0.87
2023-04-26T02:27:36.092Z,1.10
2023-04-26T02:32:43.546Z,0.97
2023-04-26T02:37:51.703Z,1.07
2023-04-26T02:42:59.089Z,0.92
2023-04-26T02:48:07.591Z,1.07
2023-04-26T02:53:15.341Z,0.93
2023-04-26T02:58:23.323Z,0.99
2023-04-26T03:03:31.316Z,1.05
2023-04-26T03:08:38.634Z,1.06
2023-04-26T03:13:46.135Z,0.98
2023-04-26T03:18:54.287Z,0.98
2023-04-26T03:24:01.636Z,1.03
2023-04-26T03:29:09.578Z,1.04
2023-04-26T03:34:17.204Z,1.07
2023-04-26T03:39:25.089Z,0.94
2023-04-26T03:44:32.457Z,1.00
2023-04-26T03:49:40.628Z,1.12
2023-04-26T03:54:48.005Z,1.05
2023-04-26T03:59:56.081Z,1.01
2023-04-26T04:05:03.956Z,0.98
2023-04-26T04:10:11.846Z,1.08
2023-04-26T04:15:19.348Z,1.07
2023-04-26T04:20:27.274Z,1.06
2023-04-26T04:25:34.789Z,1.03
2023-04-26T04:30:42.805Z,1.11
2023-04-26T04:35:50.392Z,1.11
2023-04-26T04:40:58.436Z,0.98
2023-04-26T04:46:06.119Z,1.09
2023-04-26T04:51:13.902Z,1.07
2023-04-26T04:56:21.561Z,1.00
2023-04-26T05:01:29.617Z,0.96
2023-04-26T05:06:37.356Z,1.13
2023-04-26T05:11:45.288Z,1.00
2023-04-26T05:16:53.041Z,1.00
2023-04-26T05:22:00.898Z,1.06
2023-04-26T05:27:08.293Z,1.03
2023-04-26T05:32:16.128Z,1.10
2023-04-26T05:37:23.735Z,1.64
2023-04-26T05:42:31.770Z,1.79
2023-04-26T05:47:39.327Z,2.47
2023-04-26T05:52:47.082Z,2.59
2023-04-26T05:57:54.774Z,2.86
2023-04-26T06:03:03.006Z,2.70
2023-04-26T06:08:10.398Z,3.12
2023-04-26T06:13:18.391Z,2.97
2023-04-26T06:18:25.937Z,2.89
2023-04-26T06:23:33.719Z,3.41
2023-04-26T06:28:42.319Z,2.99
2023-04-26T06:33:48.801Z,3.26
2023-04-26T06:38:56.620Z,3.33
2023-04-26T06:44:04.541Z,3.13
2023-04-26T06:49:12.206Z,2.90
2023-04-26T06:54:19.930Z,3.28
2023-04-26T06:59:27.711Z,3.01
2023-04-26T07:04:35.846Z,3.07
2023-04-26T07:09:42.956Z,3.16
2023-04-26T07:14:50.860Z,2.59
2023-04-26T07:19:58.492Z,2.80
2023-04-26T07:25:06.497Z,2.74
2023-04-26T07:30:14.154Z,2.99
2023-04-26T07:35:22.239Z,2.80
2023-04-26T07:40:29.769Z,2.74
2023-04-26T07:45:37.638Z,2.90
2023-04-26T07:50:45.263Z,2.55
2023-04-26T07:55:53.362Z,2.57
2023-04-26T08:01:00.768Z,2.88
2023-04-26T08:06:08.854Z,2.40
2023-04-26T08:11:16.064Z,2.68
2023-04-26T08:16:23.720Z,2.77
2023-04-26T08:21:31.287Z,2.53
2023-04-26T08:26:39.260Z,2.57
2023-04-26T08:31:47.164Z,2.40
2023-04-26T08:36:55.076Z,2.52
2023-04-26T08:42:02.828Z,2.55
2023-04-26T08:47:10.536Z,2.55
2023-04-26T08:52:17.985Z,2.56
2023-04-26T08:57:26.144Z,2.34
2023-04-26T09:02:34.031Z,2.23
2023-04-26T09:07:41.999Z,2.20
2023-04-26T09:12:49.710Z,2.20
2023-04-26T09:17:57.894Z,2.20
2023-04-26T09:23:05.583Z,2.23
2023-04-26T09:28:13.421Z,2.29
2023-04-26T09:33:20.992Z,2.22
2023-04-26T09:38:28.883Z,1.92
2023-04-26T09:43:36.349Z,2.24
2023-04-26T09:48:44.019Z,2.08
2023-04-26T09:53:51.398Z,1.99
2023-04-26T09:58:59.230Z,2.01
2023-04-26T10:04:07.000Z,2.00
2023-04-26T10:09:15.724Z,2.28
2023-04-26T10:14:23.237Z,1.95
2023-04-26T10:19:31.312Z,2.06
2023-04-26T10:24:38.829Z,2.01
2023-04-26T10:29:46.650Z,2.03
2023-04-26T10:34:54.035Z,1.97
2023-04-26T10:40:01.775Z,1.79
2023-04-26T10:45:09.177Z,2.00
2023-04-26T10:50:17.184Z,1.96
2023-04-26T10:55:25.456Z,2.06
2023-04-26T11:00:33.152Z,1.87
2023-04-26T11:05:39.912Z,1.75
2023-04-26T11:10:48.158Z,1.85
2023-04-26T11:15:55.822Z,1.79
2023-04-26T11:21:03.638Z,1.92
2023-04-26T11:26:11.287Z,1.93
2023-04-26T11:31:19.119Z,1.75
2023-04-26T11:36:26.608Z,1.79
2023-04-26T11:41:34.676Z,1.82
2023-04-26T11:46:42.491Z,1.71
2023-04-26T11:51:50.156Z,1.76
2023-04-26T11:56:57.799Z,1.78
2023-04-26T12:02:05.778Z,1.89
2023-04-26T12:07:13.147Z,1.72
2023-04-26T12:12:21.039Z,1.96
2023-04-26T12:17:29.294Z,1.77
2023-04-26T12:22:36.828Z,1.68
2023-04-26T12:27:44.421Z,1.84
2023-04-26T12:32:52.255Z,1.82
2023-04-26T12:37:59.592Z,1.73
2023-04-26T12:43:07.827Z,1.68
2023-04-26T12:48:15.764Z,1.55
2023-04-26T12:53:22.912Z,1.62
2023-04-26T12:58:30.648Z,1.54
2023-04-26T13:03:38.713Z,1.82
2023-04-26T13:08:46.136Z,1.76
2023-04-26T13:13:53.832Z,1.69
2023-04-26T13:19:01.241Z,1.75
2023-04-26T13:24:08.810Z,1.53
2023-04-26T13:29:16.537Z,1.53
2023-04-26T13:34:24.206Z,1.56
2023-04-26T13:39:31.738Z,1.62
2023-04-26T13:44:39.591Z,1.67
2023-04-26T13:49:47.332Z,1.58
2023-04-26T13:54:55.339Z,1.57
2023-04-26T14:00:02.963Z,1.58
2023-04-26T14:05:11.243Z,1.57
2023-04-26T14:10:18.711Z,1.55
2023-04-26T14:15:26.645Z,1.54
2023-04-26T14:20:34.293Z,1.70
2023-04-26T14:25:41.909Z,1.46
2023-04-26T14:30:49.496Z,1.53
2023-04-26T14:35:57.527Z,1.66
2023-04-26T14:41:05.111Z,1.69
2023-04-26T14:46:13.377Z,1.62
2023-04-26T14:51:20.759Z,1.71
2023-04-26T14:56:28.768Z,1.67
2023-04-26T15:01:36.474Z,1.43
2023-04-26T15:06:45.579Z,1.57
2023-04-26T15:11:53.128Z,1.68
2023-04-26T15:17:00.921Z,1.55
2023-04-26T15:22:08.526Z,1.48
2023-04-26T15:27:16.839Z,1.36
2023-04-26T15:32:24.447Z,1.32
2023-04-26T15:37:32.061Z,1.63
2023-04-26T15:42:39.798Z,1.51
2023-04-26T15:47:47.769Z,1.43
2023-04-26T15:52:56.026Z,1.60
2023-04-26T15:58:04.121Z,1.42
2023-04-26T16:03:11.675Z,1.50
2023-04-26T16:08:32.798Z,1.42
2023-04-26T16:13:26.497Z,1.54
2023-04-26T16:18:34.393Z,1.40
2023-04-26T16:23:42.101Z,1.43
2023-04-26T16:28:50.124Z,1.59
2023-04-26T16:33:57.521Z,1.36
2023-04-26T16:39:05.831Z,1.40
2023-04-26T16:44:13.490Z,1.35
2023-04-26T16:49:21.375Z,1.65
2023-04-26T16:54:29.233Z,1.65
2023-04-26T16:59:37.248Z,1.71
2023-04-26T17:04:44.939Z,1.68
2023-04-26T17:09:52.348Z,1.63
2023-04-26T17:15:00.509Z,1.71
2023-04-26T17:20:07.486Z,1.38
2023-04-26T17:25:13.941Z,1.32
2023-04-26T17:30:21.683Z,1.49
2023-04-26T17:35:29.107Z,1.45
2023-04-26T17:40:37.285Z,1.58
2023-04-26T17:45:44.753Z,1.45
2023-04-26T17:50:52.651Z,1.36
2023-04-26T17:56:00.129Z,1.43
2023-04-26T18:01:07.809Z,1.50
2023-04-26T18:06:15.740Z,1.45
2023-04-26T18:11:23.842Z,1.32
2023-04-26T18:16:31.652Z,1.54
2023-04-26T18:21:39.371Z,1.41
2023-04-26T18:26:47.231Z,1.46
2023-04-26T18:31:55.280Z,1.47
2023-04-26T18:37:02.932Z,1.80
2023-04-26T18:42:10.817Z,1.36
2023-04-26T18:47:18.450Z,1.56
2023-04-26T18:52:26.331Z,1.46
2023-04-26T18:57:34.083Z,1.38
2023-04-26T19:02:42.086Z,1.44
2023-04-26T19:07:49.541Z,1.42
2023-04-26T19:12:57.672Z,1.53
2023-04-26T19:18:05.457Z,1.38
2023-04-26T19:23:13.453Z,1.46
2023-04-26T19:28:21.049Z,1.68
2023-04-26T19:33:29.093Z,1.64
2023-04-26T19:38:36.722Z,1.37
2023-04-26T19:43:44.620Z,1.37
2023-04-26T19:48:52.321Z,1.39
2023-04-26T19:54:00.194Z,1.49
2023-04-26T19:59:07.986Z,1.59
2023-04-26T20:04:15.885Z,1.47
2023-04-26T20:09:23.471Z,1.62
2023-04-26T20:14:31.576Z,1.33
2023-04-26T20:19:39.318Z,1.31
2023-04-26T20:24:47.103Z,1.48
2023-04-26T20:29:54.584Z,1.35
2023-04-26T20:35:04.365Z,1.37
2023-04-26T20:40:11.915Z,1.40
2023-04-26T20:45:19.553Z,1.39
2023-04-26T20:50:26.995Z,1.33
2023-04-26T20:55:34.771Z,1.30
2023-04-26T21:00:42.454Z,1.42
2023-04-26T21:05:50.255Z,1.43
2023-04-26T21:10:57.681Z,1.54
2023-04-26T21:16:05.801Z,1.50
2023-04-26T21:21:13.253Z,1.40
2023-04-26T21:26:20.869Z,1.62
2023-04-26T21:31:28.270Z,1.45
2023-04-26T21:36:36.292Z,1.40
2023-04-26T21:41:43.775Z,1.46
2023-04-26T21:46:51.659Z,1.38
2023-04-26T21:51:59.372Z,1.49
2023-04-26T21:57:07.139Z,1.35
2023-04-26T22:02:14.747Z,1.39
2023-04-26T22:07:22.556Z,1.32
2023-04-26T22:12:29.954Z,1.45
2023-04-26T22:17:38.190Z,1.51
2023-04-26T22:22:45.855Z,1.45
2023-04-26T22:27:53.514Z,1.36
2023-04-26T22:33:01.200Z,1.59
2023-04-26T22:38:09.219Z,1.31
2023-04-26T22:43:16.736Z,1.49
2023-04-26T22:48:24.755Z,1.49
2023-04-26T22:53:32.115Z,1.47
2023-04-26T22:58:40.063Z,1.53
2023-04-26T23:03:47.742Z,1.53
2023-04-26T23:08:55.623Z,1.42
2023-04-26T23:14:04.052Z,1.48
2023-04-26T23:19:10.780Z,1.40
2023-04-26T23:24:18.038Z,1.35
2023-04-26T23:29:25.954Z,1.51
2023-04-26T23:34:33.616Z,1.44
2023-04-26T23:39:41.318Z,1.62
2023-04-26T23:44:48.927Z,1.54
2023-04-26T23:49:56.804Z,1.45
2023-04-26T23:55:04.401Z,1.44
